This is the latest recevied weather packets stored in our database for station/object KE8WMS. If no packets are shown the sender has not sent any weather packets the latest 10 day(s).
| Time | Temp. | Humidity | Pressure | Rain* | Wind** | Luminosity | Snow |
|---|---|---|---|---|---|---|---|
| 1787870039 | 23.89° C | 77% | 1010.2 hPa | 0 mm | - | 41 W/m² | - |
| 1787869738 | 23.89° C | 75% | 1010.2 hPa | 0 mm | - | 43 W/m² | - |
| 1787869437 | 23.89° C | 76% | 1010 hPa | 0 mm | - | 44 W/m² | - |
| 1787869132 | 23.89° C | 75% | 1010.3 hPa | 0 mm | - | 45 W/m² | - |
| 1787868831 | 23.89° C | 76% | 1010.3 hPa | 0 mm | - | 46 W/m² | - |
| 1787868530 | 23.89° C | 77% | 1010.1 hPa | 0 mm | - | 47 W/m² | - |
| 1787868229 | 23.89° C | 77% | 1010.2 hPa | 0 mm | - | 49 W/m² | - |
| 1787867924 | 23.89° C | 77% | 1010.1 hPa | 0 mm | - | 49 W/m² | - |
| 1787867620 | 24.44° C | 77% | 1010.1 hPa | 0 mm | - | 81 W/m² | - |
| 1787867320 | 24.44° C | 76% | 1010.1 hPa | 0 mm | - | 231 W/m² | - |
| 1787867016 | 24.44° C | 75% | 1010 hPa | 0 mm | - | 238 W/m² | - |
| 1787866711 | 24.44° C | 74% | 1010.1 hPa | 0 mm | - | 260 W/m² | - |
| 1787866410 | 25° C | 73% | 1010 hPa | 0 mm | - | 274 W/m² | - |
| 1787866105 | 25° C | 68% | 1009.9 hPa | 0 mm | - | 289 W/m² | - |
| 1787865799 | 25.56° C | 66% | 1009.9 hPa | 0 mm | - | 305 W/m² | - |
| 1787865495 | 25.56° C | 64% | 1010 hPa | 0 mm | - | 320 W/m² | - |
| 1787865189 | 26.11° C | 59% | 1010.1 hPa | 0 mm | - | 334 W/m² | - |
| 1787864886 | 25.56° C | 61% | 1009.8 hPa | 0 mm | - | 347 W/m² | - |
| 1787864586 | 25.56° C | 59% | 1009.8 hPa | 0 mm | - | 360 W/m² | - |
| 1787864280 | 26.11° C | 60% | 1010 hPa | 0 mm | - | 373 W/m² | - |
| 1787863975 | 25.56° C | 63% | 1010 hPa | 0 mm | - | 389 W/m² | - |
| 1787863674 | 26.67° C | 60% | 1009.9 hPa | 0 mm | - | 400 W/m² | - |
| 1787863372 | 26.11° C | 62% | 1010.1 hPa | 0 mm | - | 415 W/m² | - |
| 1787863068 | 25.56° C | 63% | 1010.4 hPa | 0 mm | - | 431 W/m² | - |
| 1787862764 | 25.56° C | 66% | 1010.3 hPa | 0 mm | - | 441 W/m² | - |
* Rain latest hour (hover to see other rain measurements)
** Current wind speed in m/s (hover to see current wind gust speed)